Time;durP1;ratioP1;P1;durP2;ratioP2;P2;SDS_P1;SDS_P2;PMS_P1;PMS_P2;Temp;Humidity;BMP_temperature;BMP_pressure;BME280_temperature;BME280_humidity;BME280_pressure;Samples;Min_cycle;Max_cycle;Signal;HPM_P1;HPM_P2
2023/10/11 00:01:23;;;;;;;7.63;2.78;;;;;;;17.39;45.31;100393.91;21074913;28;20609;-80
2023/10/11 00:11:30;;;;;;;8.38;3.38;;;;;;;17.21;45.97;100402.00;21066108;28;20198;-83
2023/10/11 00:21:40;;;;;;;7.40;2.58;;;;;;;17.57;45.14;100386.56;21079695;28;20489;-82
2023/10/11 00:31:42;;;;;;;5.72;2.20;;;;;;;17.24;46.54;100388.28;21074694;28;20190;-82
2023/10/11 00:41:48;;;;;;;6.68;3.00;;;;;;;17.05;47.37;100386.19;21056726;28;20310;-80
2023/10/11 00:51:50;;;;;;;7.95;2.72;;;;;;;17.31;46.12;100371.34;21072441;28;20291;-82
2023/10/11 01:01:55;;;;;;;7.63;2.92;;;;;;;17.03;47.19;100372.34;21072478;28;20228;-82
2023/10/11 01:11:57;;;;;;;8.48;2.60;;;;;;;16.77;48.60;100363.63;21060351;28;20203;-79
2023/10/11 01:22:00;;;;;;;8.00;2.95;;;;;;;16.77;47.88;100358.75;21079562;28;20225;-80
2023/10/11 01:32:02;;;;;;;6.70;3.17;;;;;;;17.11;46.88;100344.91;21073691;28;20291;-80
2023/10/11 01:42:05;;;;;;;9.00;3.42;;;;;;;16.92;47.94;100340.03;21072596;28;20230;-80
2023/10/11 01:52:08;;;;;;;4.35;2.95;;;;;;;16.84;48.32;100329.69;21067279;28;20230;-80
2023/10/11 02:02:11;;;;;;;9.43;3.63;;;;;;;16.76;48.09;100328.69;21085148;28;20222;-83
2023/10/11 02:12:17;;;;;;;10.43;3.72;;;;;;;17.02;48.38;100330.09;21091119;28;20494;-83
2023/10/11 02:22:22;;;;;;;9.02;3.25;;;;;;;16.92;47.81;100319.28;21085726;28;20508;-83
2023/10/11 02:32:31;;;;;;;8.40;3.00;;;;;;;16.44;48.83;100321.44;21086107;28;20269;-82
2023/10/11 02:42:36;;;;;;;6.78;3.25;;;;;;;16.79;48.59;100305.22;21058149;28;20214;-83
2023/10/11 02:52:39;;;;;;;8.68;3.65;;;;;;;16.76;48.31;100302.28;21053904;28;20314;-84
2023/10/11 03:02:43;;;;;;;8.65;3.30;;;;;;;16.22;49.19;100302.22;21068273;28;20225;-84
2023/10/11 03:12:44;;;;;;;6.20;3.20;;;;;;;16.33;48.35;100306.97;21062743;28;20191;-83
2023/10/11 03:22:51;;;;;;;6.32;2.90;;;;;;;16.32;48.60;100302.47;21066151;28;20211;-84
2023/10/11 03:32:52;;;;;;;7.55;3.22;;;;;;;16.48;47.75;100300.44;21036311;28;20230;-84
2023/10/11 03:42:59;;;;;;;5.03;2.67;;;;;;;16.56;47.83;100294.94;21023919;28;20218;-83
2023/10/11 03:53:10;;;;;;;11.38;2.95;;;;;;;16.10;48.42;100295.47;21020399;28;20651;-84
2023/10/11 04:03:16;;;;;;;7.13;2.80;;;;;;;16.43;47.90;100286.53;21062312;28;20221;-84
2023/10/11 04:13:24;;;;;;;7.97;3.10;;;;;;;16.30;48.38;100292.69;21060733;28;20191;-84
2023/10/11 04:23:28;;;;;;;8.32;3.25;;;;;;;15.86;49.36;100278.59;21026180;28;20231;-84
2023/10/11 04:33:31;;;;;;;7.35;3.28;;;;;;;15.88;48.70;100286.75;21050681;28;20641;-79
2023/10/11 04:43:40;;;;;;;9.93;3.10;;;;;;;16.19;47.29;100278.22;21044492;28;20226;-79
2023/10/11 04:53:54;;;;;;;9.02;3.00;;;;;;;16.36;47.16;100280.69;21051896;28;20561;-80
2023/10/11 05:03:59;;;;;;;7.80;3.25;;;;;;;15.86;48.11;100287.13;21070313;28;20756;-79
2023/10/11 05:14:10;;;;;;;5.72;2.63;;;;;;;16.47;46.49;100270.38;21069534;28;20206;-80
2023/10/11 05:24:29;;;;;;;9.30;3.10;;;;;;;15.87;47.65;100287.94;21079738;28;20723;-79
2023/10/11 05:34:46;;;;;;;6.18;2.65;;;;;;;15.95;47.10;100275.59;21059339;28;20293;-79
2023/10/11 05:55:09;;;;;;;6.63;3.00;;;;;;;15.89;47.60;100268.53;21049780;28;20634;-79
2023/10/11 06:05:14;;;;;;;9.57;3.28;;;;;;;16.17;46.72;100270.06;21057572;28;20233;-80
2023/10/11 06:15:19;;;;;;;6.75;2.83;;;;;;;16.25;46.60;100276.75;21060956;28;20203;-79
2023/10/11 06:25:49;;;;;;;7.80;2.92;;;;;;;15.97;46.16;100250.53;21055141;28;20257;-79
2023/10/11 06:35:49;;;;;;;6.10;2.63;;;;;;;16.24;45.57;100252.38;21060116;28;20823;-79
2023/10/11 06:45:52;;;;;;;4.00;2.22;;;;;;;16.67;45.23;100257.06;21037200;28;20295;-79
2023/10/11 06:55:58;;;;;;;6.88;2.80;;;;;;;16.37;45.20;100292.88;21076222;28;20234;-79
2023/10/11 07:06:10;;;;;;;9.30;2.88;;;;;;;16.40;45.81;100292.94;21010126;28;20229;-79
2023/10/11 07:16:11;;;;;;;4.95;2.58;;;;;;;15.97;46.73;100287.41;21076037;28;20277;-83
2023/10/11 07:26:25;;;;;;;5.53;2.40;;;;;;;16.47;45.78;100284.59;21051100;28;20312;-79
2023/10/11 07:36:26;;;;;;;8.13;2.90;;;;;;;16.97;45.13;100280.03;21032538;28;20256;-80
2023/10/11 07:46:29;;;;;;;4.65;2.13;;;;;;;16.96;44.51;100263.34;21070833;28;20236;-81
2023/10/11 07:56:35;;;;;;;10.60;2.92;;;;;;;16.93;44.57;100270.59;21061729;28;20230;-82
2023/10/11 08:06:40;;;;;;;5.53;2.35;;;;;;;16.98;44.36;100278.03;21050077;28;20234;-79
2023/10/11 08:16:43;;;;;;;6.25;2.92;;;;;;;17.84;42.95;100287.84;21072821;28;20205;-80
2023/10/11 08:26:46;;;;;;;7.65;2.58;;;;;;;17.58;43.25;100296.31;21039477;28;20318;-83
2023/10/11 08:36:48;;;;;;;9.70;2.78;;;;;;;18.03;43.11;100303.28;21056281;28;20203;-81
2023/10/11 08:46:53;;;;;;;10.35;3.03;;;;;;;17.84;42.59;100304.13;21054415;28;20223;-83
2023/10/11 08:56:57;;;;;;;4.57;2.25;;;;;;;17.75;43.06;100307.22;21059984;28;20238;-80
2023/10/11 09:07:00;;;;;;;5.22;2.40;;;;;;;18.06;43.05;100308.19;21053588;28;20338;-79
2023/10/11 09:17:18;;;;;;;7.45;2.88;;;;;;;18.27;42.51;100300.00;21052308;28;20630;-80
2023/10/11 09:27:22;;;;;;;8.90;2.88;;;;;;;18.63;41.54;100319.34;21053909;28;20219;-80
2023/10/11 09:37:24;;;;;;;5.38;2.90;;;;;;;19.16;40.75;100302.13;21032905;28;20226;-79
2023/10/11 09:47:31;;;;;;;9.77;2.88;;;;;;;18.86;41.19;100309.88;21046506;28;20218;-80
2023/10/11 09:57:41;;;;;;;7.85;2.80;;;;;;;18.82;41.64;100289.06;21068139;28;20237;-80
2023/10/11 10:07:44;;;;;;;6.15;2.53;;;;;;;18.84;41.76;100290.28;21041681;28;20231;-79
2023/10/11 10:18:20;;;;;;;7.25;2.53;;;;;;;18.88;41.24;100299.72;21049161;28;20205;-80
2023/10/11 10:28:57;;;;;;;5.53;2.80;;;;;;;19.07;41.71;100303.66;21067251;28;20305;-81
2023/10/11 10:39:36;;;;;;;12.40;2.92;;;;;;;19.75;41.17;100288.13;21044388;28;20201;-80
2023/10/11 10:49:41;;;;;;;4.22;2.33;;;;;;;19.18;42.23;100282.59;21048900;28;20227;-80
2023/10/11 10:59:49;;;;;;;8.05;2.90;;;;;;;19.40;41.49;100289.41;21040697;28;20234;-80
2023/10/11 11:09:57;;;;;;;7.97;2.88;;;;;;;19.63;41.68;100274.97;21067731;28;20679;-80
2023/10/11 11:20:12;;;;;;;9.45;2.83;;;;;;;19.62;41.92;100267.59;21065829;28;20201;-83
2023/10/11 11:30:33;;;;;;;8.02;2.85;;;;;;;19.88;41.46;100263.78;21063498;28;20226;-80
2023/10/11 11:40:37;;;;;;;8.48;2.85;;;;;;;20.12;41.23;100271.78;21052381;28;20202;-79
2023/10/11 11:50:40;;;;;;;9.35;3.08;;;;;;;20.42;41.05;100233.63;21056656;28;20527;-80
2023/10/11 12:00:45;;;;;;;9.95;3.00;;;;;;;20.15;41.26;100230.97;21033153;28;20535;-79
2023/10/11 12:10:49;;;;;;;12.27;3.60;;;;;;;20.28;41.15;100243.72;21041875;28;20280;-81
2023/10/11 12:20:51;;;;;;;12.63;3.53;;;;;;;20.48;42.25;100230.00;21047516;28;20191;-81
2023/10/11 12:30:54;;;;;;;12.88;3.33;;;;;;;20.50;41.39;100233.28;21066285;28;20219;-80
2023/10/11 12:40:56;;;;;;;18.10;3.53;;;;;;;20.25;42.01;100218.00;21048461;28;20623;-80
2023/10/11 12:50:59;;;;;;;8.88;3.33;;;;;;;20.75;41.38;100216.28;21049269;28;20226;-83
2023/10/11 13:01:05;;;;;;;11.80;3.35;;;;;;;20.90;41.12;100197.13;21065103;28;20453;-79
2023/10/11 13:11:11;;;;;;;16.92;3.53;;;;;;;20.70;41.70;100174.59;21071881;28;20225;-79
2023/10/11 13:21:16;;;;;;;12.05;3.63;;;;;;;20.64;41.76;100175.38;21066906;28;20202;-80
2023/10/11 13:31:19;;;;;;;9.43;3.25;;;;;;;19.92;43.73;100178.97;21050270;28;20219;-80
2023/10/11 13:41:27;;;;;;;10.20;3.05;;;;;;;20.47;42.87;100181.78;21057162;28;20212;-80
2023/10/11 13:51:30;;;;;;;9.30;3.00;;;;;;;20.38;42.99;100174.41;21064751;28;20317;-80
2023/10/11 14:01:57;;;;;;;9.38;2.65;;;;;;;20.65;43.21;100142.72;21034109;28;20562;-80
2023/10/11 14:12:00;;;;;;;9.75;3.13;;;;;;;21.05;43.88;100142.41;21049524;28;20225;-81
2023/10/11 14:22:05;;;;;;;8.45;3.28;;;;;;;20.50;44.11;100144.66;21071450;28;20195;-80
2023/10/11 14:32:10;;;;;;;8.70;2.80;;;;;;;20.55;43.94;100141.41;21062350;28;20249;-80
2023/10/11 14:42:14;;;;;;;10.40;2.70;;;;;;;20.65;44.37;100125.56;21066472;28;20260;-79
2023/10/11 14:52:18;;;;;;;10.60;2.30;;;;;;;20.29;45.16;100107.38;21050162;28;20309;-79
2023/10/11 15:02:20;;;;;;;12.00;4.05;;;;;;;20.60;44.72;100098.16;21048405;28;20329;-83
2023/10/11 15:12:23;;;;;;;9.35;3.15;;;;;;;21.16;43.72;100090.13;21058589;28;20256;-80
2023/10/11 15:22:27;;;;;;;9.20;2.97;;;;;;;20.86;43.91;100073.31;21038818;28;20199;-83
2023/10/11 15:32:31;;;;;;;12.48;3.63;;;;;;;19.86;45.47;100084.28;21072071;28;20693;-79
2023/10/11 15:42:33;;;;;;;14.30;2.95;;;;;;;20.68;43.95;100078.97;21038205;28;20278;-80
2023/10/11 15:52:38;;;;;;;13.48;3.10;;;;;;;19.88;45.26;100076.13;21037868;28;20282;-79
2023/10/11 16:02:42;;;;;;;9.10;3.00;;;;;;;20.42;43.26;100068.66;21078057;28;20234;-80
2023/10/11 16:12:45;;;;;;;14.25;3.47;;;;;;;20.39;43.48;100073.13;21072728;28;20227;-79
2023/10/11 16:22:47;;;;;;;11.15;3.60;;;;;;;19.80;44.27;100077.31;21072343;28;20232;-79
2023/10/11 16:32:54;;;;;;;10.10;3.78;;;;;;;20.00;43.28;100078.66;21053321;28;20219;-79
2023/10/11 16:42:55;;;;;;;11.55;3.22;;;;;;;20.21;42.94;100062.88;21061964;28;20205;-79
2023/10/11 16:52:58;;;;;;;14.13;3.22;;;;;;;19.85;43.29;100071.22;21077973;28;20228;-81
2023/10/11 17:03:01;;;;;;;10.13;3.05;;;;;;;19.66;43.03;100075.16;21079549;28;20198;-79
2023/10/11 17:13:04;;;;;;;8.20;2.97;;;;;;;19.26;43.22;100064.63;21059350;28;20273;-79
2023/10/11 17:23:06;;;;;;;9.32;3.17;;;;;;;19.48;42.10;100067.72;21065022;28;20208;-78
2023/10/11 17:33:11;;;;;;;10.02;3.45;;;;;;;19.67;41.55;100062.53;21067501;28;20242;-79
2023/10/11 17:43:13;;;;;;;12.82;2.92;;;;;;;19.75;40.65;100063.38;21073127;28;20490;-79
2023/10/11 17:53:17;;;;;;;9.98;2.67;;;;;;;19.09;41.06;100055.94;21035035;28;1118750;-79
2023/10/11 18:03:18;;;;;;;13.63;2.47;;;;;;;19.49;38.79;100057.91;21057186;28;20195;-79
2023/10/11 18:13:21;;;;;;;9.38;2.85;;;;;;;19.39;38.33;100059.47;21056788;28;20213;-78
2023/10/11 18:23:23;;;;;;;9.00;2.40;;;;;;;18.87;38.42;100055.72;21068483;28;20208;-78
2023/10/11 18:33:26;;;;;;;9.65;2.35;;;;;;;19.16;36.57;100039.69;21052696;28;20567;-78
2023/10/11 18:43:28;;;;;;;12.55;2.88;;;;;;;19.46;36.48;100047.31;21070242;28;20201;-79
2023/10/11 18:53:32;;;;;;;4.78;2.17;;;;;;;19.52;36.87;100040.81;21058863;28;20523;-79
2023/10/11 19:03:34;;;;;;;9.35;2.08;;;;;;;19.33;37.43;100064.75;21050195;28;20202;-80
2023/10/11 19:13:38;;;;;;;9.93;2.50;;;;;;;19.12;38.26;100073.06;21069020;28;20285;-81
2023/10/11 19:23:41;;;;;;;6.30;3.08;;;;;;;19.32;37.69;100083.06;21055859;28;20249;-80
2023/10/11 19:33:44;;;;;;;5.25;2.70;;;;;;;18.95;37.04;100091.66;21046336;28;20598;-79
2023/10/11 19:43:46;;;;;;;5.07;2.30;;;;;;;19.35;36.64;100097.78;21041085;28;20214;-79
2023/10/11 19:53:49;;;;;;;10.50;2.47;;;;;;;18.73;38.59;100095.50;21045009;28;20227;-79
2023/10/11 20:03:56;;;;;;;7.43;2.47;;;;;;;18.27;39.70;100081.50;21051911;28;20282;-79
2023/10/11 20:13:59;;;;;;;6.32;2.55;;;;;;;18.07;41.86;100057.22;21066535;28;20647;-79
2023/10/11 20:24:01;;;;;;;9.57;3.03;;;;;;;18.01;42.83;100047.38;21069336;28;20220;-79
2023/10/11 20:34:08;;;;;;;7.70;2.47;;;;;;;18.33;44.27;100044.91;21068892;28;20203;-79
2023/10/11 20:44:11;;;;;;;7.78;2.67;;;;;;;18.26;44.06;100039.16;21066141;28;20225;-79
2023/10/11 20:54:14;;;;;;;7.90;2.65;;;;;;;18.63;44.44;100034.31;21050674;28;20231;-81
2023/10/11 21:04:16;;;;;;;9.80;3.28;;;;;;;18.82;44.20;100036.16;21070298;28;20515;-79
2023/10/11 21:14:19;;;;;;;5.85;2.97;;;;;;;18.17;46.42;100035.78;21073011;28;20520;-79
2023/10/11 21:24:21;;;;;;;10.10;2.33;;;;;;;18.38;46.57;100033.19;21073645;28;20226;-79
2023/10/11 21:34:25;;;;;;;5.68;2.70;;;;;;;18.56;46.32;100034.22;21068941;28;20202;-79
2023/10/11 21:44:27;;;;;;;5.85;2.85;;;;;;;18.40;47.28;100036.47;21068554;28;20277;-81
2023/10/11 21:54:30;;;;;;;10.40;3.83;;;;;;;18.19;48.02;100045.56;21077903;28;20527;-81
2023/10/11 22:04:32;;;;;;;13.95;3.20;;;;;;;18.67;47.32;100033.53;21056181;28;20228;-82
2023/10/11 22:14:37;;;;;;;8.40;2.97;;;;;;;17.89;49.31;100024.81;21073828;28;20206;-79
2023/10/11 22:24:41;;;;;;;7.25;3.08;;;;;;;18.32;48.26;100011.94;21046916;28;20222;-79
2023/10/11 22:34:45;;;;;;;8.18;2.80;;;;;;;18.41;48.57;100006.78;21072447;28;20194;-80
2023/10/11 22:44:47;;;;;;;7.05;2.60;;;;;;;18.34;48.41;100020.94;21057363;28;20225;-79
2023/10/11 22:54:50;;;;;;;6.10;2.40;;;;;;;17.98;49.74;100030.25;21062725;28;20229;-79
2023/10/11 23:04:54;;;;;;;11.32;2.67;;;;;;;17.76;50.50;100027.09;21053352;28;20226;-79
2023/10/11 23:14:59;;;;;;;8.60;2.78;;;;;;;18.35;48.44;100036.81;21060668;28;20290;-83
2023/10/11 23:25:00;;;;;;;8.57;3.08;;;;;;;18.34;48.34;100035.16;21057094;28;20218;-82
2023/10/11 23:35:16;;;;;;;9.70;3.05;;;;;;;18.22;48.43;100018.34;21045128;28;20190;-79
2023/10/11 23:45:22;;;;;;;6.75;2.90;;;;;;;18.08;48.69;100041.78;21054392;28;20229;-79
2023/10/11 23:55:26;;;;;;;10.93;2.67;;;;;;;18.00;48.92;100044.91;21062945;28;20283;-80
